Terminal Aerodrome Forecast
Issued by NWS Sioux Falls, SD

Home | Current Version | Previous Version | Graphics & Text | Print | Product List | Glossary Off
Versions: 1 2 3 4 5 6 7 8 9 10 11 12

505
FTUS43 KFSD 171122
TAFFSD
TAF
KFSD 171122Z 1712/1812 VRB03KT P6SM SKC
     FM171800 22006KT P6SM SKC
     FM172300 19007KT P6SM SKC=

USA.gov is the U.S. government's official web portal to all federal, state and local government web resources and services.